Blue Oak Ranch Reserve, California Weather observations

Data are for 10 minute period ending at time listed.
 Day   Time   Solar   Ave.   Ave.  Ave.  Vector  Max.   Baro.   Total    
  of    of     Rad.   Air    Rel.  Wind   Wind   Wind  Press.  Precip.   
Year   Day            Temp.  Hum.  Speed  Dir.   Gust                    
2019   (PST)  Kw/m2    F      %     mph   deg.    mph    mb.     in.     
-------------------------------------------------------------------------
  82    1:20   0.00   47.9    94    2.2   152     5.1   953.2    0.02 
  82    1:30   0.00   47.9    94    1.4   185     4.3   953.2    0.01 
  82    1:40   0.00   47.8    94    2.7   158     4.5   953.2    0.02 
  82    1:50   0.00   47.5    95    2.8   147     6.9   953.1    0.01 
  82    2:00   0.00   47.3    95    2.7   127     5.8   953.1    0.01 
  82    2:10   0.00   46.9    95    1.8   179     3.7   953.0    0.02 
  82    2:20   0.00   46.9    94    2.6   228     5.8   953.1    0.02 
  82    2:30   0.00   46.6    94    4.1   229     7.3   953.1    0.02 
  82    2:40   0.00   46.5    94    1.1   241     5.6   953.0    0.01 
  82    2:50   0.00   46.4    94    1.4   186     3.1   953.0    0.01 
  82    3:00   0.00   46.4    94    1.3   269     3.3   952.9    0.01 
  82    3:10   0.00   46.4    94    2.1   283     4.5   952.9    0.02 
  82    3:20   0.00   46.5    94    1.2   254     3.2   952.8    0.01 
  82    3:30   0.00   46.5    94    2.6   316     5.6   952.9    0.04 
  82    3:40   0.00   46.4    94    4.1   294     9.1   952.9    0.02 
  82    3:50   0.00   46.0    94    4.0   302     8.0   952.9    0.01 
  82    4:00   0.00   45.9    94    3.4   326     5.9   952.9    0.02 
  82    4:10   0.00   45.8    94    2.8    20     4.7   952.9    0.01 
  82    4:20   0.00   45.5    93    2.8    17     4.6   952.8    0.02 
  82    4:30   0.00   45.4    91    3.6    28     6.2   952.7    0.00 
  82    4:40   0.00   45.2    90    4.1    38     7.5   952.6    0.01 
  82    4:50   0.00   45.1    89    4.1    27     7.7   952.6    0.00 
  82    5:00   0.00   45.4    86    4.7    22     6.5   952.6    0.01 
  82    5:10   0.00   45.7    84    3.7    12     6.0   952.7    0.00 
  82    5:20   0.00   45.4    86    1.5     6     3.1   952.7    0.00 
  82    5:30   0.00   44.8    90    2.4     2     3.7   952.8    0.00 
  82    5:40   0.00   45.1    89    2.0   346     3.9   952.9    0.00 
  82    5:50   0.00   44.7    90    1.9   319     3.0   953.0    0.00 
  82    6:00   0.00   44.5    91    1.7   358     3.7   953.1    0.00 
  82    6:10   0.00   44.6    91    0.7   320     2.0   953.2    0.00 
  82    6:20   0.00   44.5    91    1.5    17     2.7   953.3    0.00 
  82    6:30   0.00   44.3    91    1.6    10     2.4   953.3    0.00 
  82    6:40   0.01   44.5    92    1.0     7     1.8   953.3    0.00 
  82    6:50   0.01   44.4    92    0.0   193     0.6   953.4    0.00 
  82    7:00   0.02   44.5    92    0.7   274     1.6   953.6    0.00 
  82    7:10   0.01   44.6    93    0.5   296     1.7   953.8    0.00 
  82    7:20   0.02   44.9    93    0.4    20     1.6   954.0    0.00 
  82    7:30   0.03   44.9    93    2.0   354     4.5   954.0    0.00 
  82    7:40   0.08   45.4    92    2.1   338     5.2   954.1    0.00 
  82    7:50   0.10   46.0    90    1.7   216     3.2   954.1    0.00 
  82    8:00   0.06   46.0    91    3.0   256     5.5   954.3    0.00 
  82    8:10   0.05   45.9    91    2.5   236     4.9   954.3    0.00 
  82    8:20   0.04   45.9    91    1.2   233     2.1   954.3    0.00 
  82    8:30   0.09   46.0    91    0.7   198     2.5   954.3    0.00 
  82    8:40   0.05   46.3    91    2.1   238     4.3   954.3    0.01 
  82    8:50   0.08   46.4    92    4.2   280     7.0   954.5    0.00 
  82    9:00   0.08   46.6    92    2.8   283     5.6   954.5    0.00 
  82    9:10   0.26   47.5    92    1.8   277     6.1   954.6    0.00 
  82    9:20   0.23   48.7    90    4.5   287     7.6   954.6    0.00 
  82    9:30   0.20   48.0    88    5.6   293     9.1   954.8    0.00 
  82    9:40   0.49   48.5    82    5.8   300    10.0   954.9    0.00 
  82    9:50   0.51   49.5    77    4.2   293     7.7   954.9    0.00 
  82   10:00   0.62   51.6    73    4.0   275     7.5   954.9    0.00 
  82   10:10   0.59   52.7    69    3.0   263     5.7   955.0    0.00 
  82   10:20   0.36   52.2    72    3.8   277     7.2   955.0    0.00 
  82   10:30   0.33   50.8    78    5.6   242     9.6   955.0    0.00 
  82   10:40   0.69   51.5    76    5.5   241    11.0   955.1    0.00 
  82   10:50   0.35   50.8    77    8.3   282    13.6   955.3    0.00 
  82   11:00   0.67   51.4    74    6.7   290    12.9   955.3    0.00 
  82   11:10   0.72   52.0    71    7.4   284    13.5   955.3    0.00 
  82   11:20   0.91   52.4    69    6.1   288    11.3   955.3    0.00 
  82   11:30   0.68   52.8    67    5.8   284     9.6   955.2    0.00 
  82   11:40   0.36   52.4    68    6.3   282    11.7   955.2    0.00 
  82   11:50   0.92   53.0    63    6.6   271    12.3   955.2    0.00 
  82   12:00   0.81   53.4    61    6.3   289    12.0   955.2    0.00 
  82   12:10   0.88   54.4    60    6.6   288    12.1   955.1    0.00 
  82   12:20   0.89   54.2    59    5.6   287     9.5   955.1    0.00 
  82   12:30   0.91   54.6    58    6.4   281    12.6   955.0    0.00 
  82   12:40   0.88   54.8    54    7.1   256    12.4   955.0    0.00 
  82   12:50   0.88   55.8    54    6.4   287    13.4   954.9    0.00 
  82   13:00   0.84   54.9    51    7.9   290    14.2   954.9    0.00 
  82   13:10   0.85   54.6    51    6.7   292    13.2   955.0    0.00 
  82   13:20   0.84   55.2    49    7.6   285    12.2   955.1    0.00 
  82   13:30   0.83   55.5    48    8.8   288    14.6   955.1    0.00 
  82   13:40   0.81   54.9    46    8.7   289    15.8   955.1    0.00 
  82   13:50   0.80   55.5    47    8.7   286    15.6   955.1    0.00 
  82   14:00   0.78   55.5    47    8.4   292    15.9   955.1    0.00 
  82   14:10   0.76   55.3    47    9.3   271    15.4   955.2    0.00 
  82   14:20   0.74   55.4    48    9.5   298    17.7   955.2    0.00 
  82   14:30   0.71   55.5    48    8.0   299    15.1   955.1    0.00 
  82   14:40   0.69   55.5    46    8.6   283    14.0   955.0    0.00 
  82   14:50   0.67   55.7    48    7.2   281    16.0   955.0    0.00 
  82   15:00   0.64   55.5    50    9.5   283    13.7   954.9    0.00 
  82   15:10   0.61   55.5    50    8.2   281    13.6   954.9    0.00 
  82   15:20   0.58   55.1    49    8.6   281    15.4   955.0    0.00 
  82   15:30   0.56   54.9    52    8.5   291    15.9   955.1    0.00 
  82   15:40   0.52   54.7    52    7.1   282    14.2   955.1    0.00 
  82   15:50   0.49   54.1    53    9.5   287    15.1   955.0    0.00 
  82   16:00   0.46   53.3    53    7.9   286    15.2   955.0    0.00 
  82   16:10   0.42   53.8    55    9.6   283    15.7   955.0    0.00 
  82   16:20   0.39   52.8    55    9.3   295    14.9   955.0    0.00 
  82   16:30   0.35   51.9    55    8.3   305    14.3   955.1    0.00 
  82   16:40   0.32   52.1    57    9.5   291    16.1   955.1    0.00 
  82   16:50   0.28   51.7    60    8.3   290    14.0   955.0    0.00 
  82   17:00   0.25   51.4    60    6.4   293    10.5   954.9    0.00 
  82   17:10   0.21   51.3    59    7.0   283    11.5   955.0    0.00 
  82   17:20   0.17   51.0    57    6.0   315    10.6   954.9    0.00 
  82   17:30   0.14   50.4    57    6.2   302    10.9   955.0    0.00 
  82   17:40   0.11   50.0    58    5.8   298    11.6   955.1    0.00 
  82   17:50   0.08   49.4    60    4.6   304     9.4   955.2    0.00 
  82   18:00   0.05   48.1    64    5.6   288     8.6   955.2    0.00 
  82   18:10   0.02   46.8    67    3.7   289     7.2   955.2    0.00 
  82   18:20   0.01   46.0    68    2.7     8     6.4   955.4    0.00 
  82   18:30   0.00   45.6    69    2.9   350     5.2   955.4    0.00 
  82   18:40   0.00   45.2    71    3.0   318     6.6   955.3    0.00 
  82   18:50   0.00   43.8    74    2.1    17     4.7   955.3    0.00 
  82   19:00   0.00   41.7    79    1.2    36     3.3   955.4    0.00 
  82   19:10   0.00   41.1    82    1.8    65     3.9   955.5    0.00 
  82   19:20   0.00   40.4    83    2.4    44     4.3   955.6    0.00 
  82   19:30   0.00   40.4    82    2.0   354     3.5   955.6    0.00 
  82   19:40   0.00   39.2    84    1.0    11     2.5   955.7    0.00 
  82   19:50   0.00   38.9    86    0.9   283     2.8   955.7    0.00 
  82   20:00   0.00   38.9    87    0.2   286     1.8   955.8    0.00 
  82   20:10   0.00   38.5    87    0.7    86     2.1   955.8    0.00 
  82   20:20   0.00   38.1    88    0.1    55     2.3   955.9    0.00 
  82   20:30   0.00   37.8    89    1.5    63     3.9   955.7    0.00 
  82   20:40   0.00   37.6    88    2.3   296     3.7   955.7    0.00 
  82   20:50   0.00   37.1    89    1.0    38     2.5   955.8    0.00 
  82   21:00   0.00   36.9    90    0.2   297     1.7   955.9    0.00 
  82   21:10   0.00   36.8    90    1.6   299     3.1   956.0    0.00 
  82   21:20   0.00   36.2    91    0.5   110     1.8   955.9    0.00 
  82   21:30   0.00   35.9    91    1.0   324     2.3   955.8    0.00 
  82   21:40   0.00   36.3    92    1.2   345     2.8   955.8    0.00 
  82   21:50   0.00   36.3    92    1.5   298     3.9   955.8    0.00 
  82   22:00   0.00   36.0    92    2.2   282     3.6   955.8    0.00 
  82   22:10   0.00   35.9    92    1.7    30     2.9   956.0    0.00 
  82   22:20   0.00   35.8    92    2.6   295     4.9   956.1    0.00 
  82   22:30   0.00   35.4    92    0.4   268     1.8   956.2    0.00 
  82   22:40   0.00   35.8    92    1.2    58     2.4   956.2    0.00 
  82   22:50   0.00   35.0    92    1.3   286     3.1   956.2    0.00 
  82   23:00   0.00   34.4    93    1.4   355     2.1   956.3    0.00 
  82   23:10   0.00   35.0    93    0.3   265     1.4   956.3    0.00 
  82   23:20   0.00   35.1    93    0.0     0     0.0   956.2    0.00 
  82   23:30   0.00   35.0    93    0.0     0     0.0   956.0    0.00 
  82   23:40   0.00   34.5    93    0.1   327     0.7   955.8    0.00 
  82   23:50   0.00   34.5    93    0.9   347     2.0   955.8    0.00 
  83    0:00   0.00   33.9    93    0.3   281     1.2   955.8    0.00 
  83    0:10   0.00   34.3    94    0.1   259     1.1   955.7    0.00 
  83    0:20   0.00   34.3    93    0.2   303     1.4   955.6    0.00 
  83    0:30   0.00   33.8    93    0.6   287     1.6   955.6    0.00 
  83    0:40   0.00   33.6    93    0.5   300     1.3   955.6    0.00 
  83    0:50   0.00   34.0    93    0.9    51     2.9   955.7    0.00 
  83    1:00   0.00   33.8    93    0.9   333     1.8   955.5    0.00 
  83    1:10   0.00   33.8    93    1.0   293     2.5   955.3    0.00 

Return to Blue Oak Ranch Reserve graphs page.


Western Regional Climate Center,wrcc@dri.edu